Weather at Sussex County Airport

Public forecast

Using degrees Fahrenheit for public forecast. Weather courtesy of forecast.io.

Current aviation weather report (METAR) for Sussex County Airport

Retrieved 2020/09/19 13:54 UTC (41 minutes ago):

KGED 191354Z AUTO 03013KT 10SM CLR 14/06 A3030 RMK AO2 SLP260 T01440056

Closest aviation forecast (TAF) to Sussex County Airport

Closest forecast is Salisbury Ocean City Wicomico Regional Airport, 22.1 nm (41.0 km) SSW. Retrieved 2020/09/19 12:22 UTC (2 hours ago):

TAF KSBY 191120Z 1912/2012 01009KT P6SM SCT250 FM191300 02012G18KT P6SM SCT250 FM192000 03010G15KT P6SM SCT250 FM200000 03005KT P6SM FEW250